createdAt,value
2023-05-19T00:01:32.111Z,102098.81
2023-05-19T00:04:02.837Z,102095.47
2023-05-19T00:06:32.592Z,102099.94
2023-05-19T00:09:03.069Z,102093.69
2023-05-19T00:11:32.507Z,102089.50
2023-05-19T00:14:01.378Z,102097.44
2023-05-19T00:16:30.477Z,102083.69
2023-05-19T00:19:00.173Z,102087.56
2023-05-19T00:21:28.500Z,102089.28
2023-05-19T00:23:56.548Z,102092.28
2023-05-19T00:26:25.035Z,102087.00
2023-05-19T00:28:54.362Z,102086.06
2023-05-19T00:31:22.140Z,102086.97
2023-05-19T00:33:49.928Z,102091.16
2023-05-19T00:36:17.780Z,102082.66
2023-05-19T00:38:45.498Z,102092.13
2023-05-19T00:41:13.279Z,102085.28
2023-05-19T00:43:41.084Z,102083.63
2023-05-19T00:46:10.984Z,102075.84
2023-05-19T00:48:38.789Z,102078.47
2023-05-19T00:51:06.800Z,102075.94
2023-05-19T00:53:35.688Z,102074.22
2023-05-19T00:56:04.397Z,102074.31
2023-05-19T00:58:32.821Z,102076.97
2023-05-19T01:01:03.689Z,102075.94
2023-05-19T01:03:35.220Z,102077.59
2023-05-19T01:06:04.940Z,102070.59
2023-05-19T01:08:33.325Z,102068.16
2023-05-19T01:11:01.206Z,102069.06
2023-05-19T01:13:29.274Z,102072.78
2023-05-19T01:16:03.493Z,102064.84
2023-05-19T01:18:40.605Z,102064.81
2023-05-19T01:21:27.157Z,102073.53
2023-05-19T01:24:02.785Z,102070.91
2023-05-19T01:26:54.005Z,102067.56
2023-05-19T01:29:32.326Z,102063.09
2023-05-19T01:32:01.537Z,102054.53
2023-05-19T01:34:29.265Z,102056.97
2023-05-19T01:36:57.195Z,102051.00
2023-05-19T01:39:25.434Z,102055.28
2023-05-19T01:41:53.600Z,102052.22
2023-05-19T01:44:22.188Z,102060.94
2023-05-19T01:46:50.140Z,102063.41
2023-05-19T01:49:19.287Z,102069.50
2023-05-19T01:51:47.016Z,102067.78
2023-05-19T01:54:14.753Z,102068.66
2023-05-19T01:56:47.271Z,102071.94
2023-05-19T01:59:29.941Z,102058.44
2023-05-19T02:01:59.674Z,102060.88
2023-05-19T02:04:39.975Z,102066.25
2023-05-19T02:07:13.417Z,102069.75
2023-05-19T02:09:46.120Z,102068.84
2023-05-19T02:12:20.815Z,102064.47
2023-05-19T02:14:51.753Z,102066.13
2023-05-19T02:17:19.735Z,102069.69
2023-05-19T02:19:48.950Z,102068.94
2023-05-19T02:22:16.690Z,102070.75
2023-05-19T02:24:46.500Z,102059.41
2023-05-19T02:27:14.412Z,102062.13
2023-05-19T02:29:42.195Z,102055.31
2023-05-19T02:32:10.330Z,102054.41
2023-05-19T02:34:38.269Z,102045.72
2023-05-19T02:37:07.825Z,102049.16
2023-05-19T02:39:35.897Z,102045.50
2023-05-19T02:42:04.049Z,102048.28
2023-05-19T02:44:31.772Z,102051.03
2023-05-19T02:46:59.548Z,102040.59
2023-05-19T02:49:27.386Z,102050.84
2023-05-19T02:51:55.128Z,102039.69
2023-05-19T02:54:24.217Z,102039.88
2023-05-19T02:56:51.922Z,102038.41
2023-05-19T02:59:19.931Z,102040.00
2023-05-19T03:01:47.778Z,102050.50
2023-05-19T03:04:15.519Z,102034.03
2023-05-19T03:06:45.544Z,102041.72
2023-05-19T03:09:13.711Z,102038.22
2023-05-19T03:11:43.026Z,102045.09
2023-05-19T03:14:10.770Z,102043.38
2023-05-19T03:16:41.221Z,102036.53
2023-05-19T03:19:09.651Z,102039.16
2023-05-19T03:21:37.556Z,102042.47
2023-05-19T03:24:05.665Z,102038.38
2023-05-19T03:26:33.606Z,102039.91
2023-05-19T03:29:02.659Z,102038.50
2023-05-19T03:31:30.567Z,102037.56
2023-05-19T03:33:58.387Z,102039.94
2023-05-19T03:36:26.247Z,102034.88
2023-05-19T03:38:53.983Z,102030.47
2023-05-19T03:41:21.683Z,102036.56
2023-05-19T03:43:49.420Z,102037.44
2023-05-19T03:46:18.551Z,102047.88
2023-05-19T03:48:46.406Z,102041.63
2023-05-19T03:51:14.121Z,102038.97
2023-05-19T03:53:42.477Z,102049.38
2023-05-19T03:56:11.711Z,102051.88
2023-05-19T03:59:35.418Z,102045.13
2023-05-19T04:02:03.108Z,102051.22
2023-05-19T04:04:31.490Z,102056.25
2023-05-19T04:06:59.226Z,102054.22
2023-05-19T04:09:26.993Z,102047.41
2023-05-19T04:11:54.737Z,102047.19
2023-05-19T04:14:22.436Z,102055.63
2023-05-19T04:16:51.534Z,102054.81
2023-05-19T04:19:19.515Z,102059.16
2023-05-19T04:21:47.331Z,102063.94
2023-05-19T04:24:15.026Z,102059.38
2023-05-19T04:26:46.057Z,102057.91
2023-05-19T04:29:13.881Z,102062.19
2023-05-19T04:31:42.144Z,102061.66
2023-05-19T04:34:11.467Z,102052.94
2023-05-19T04:36:39.223Z,102053.91
2023-05-19T04:39:09.384Z,102055.50
2023-05-19T04:41:40.392Z,102044.34
2023-05-19T04:44:09.122Z,102058.34
2023-05-19T04:46:36.922Z,102054.84
2023-05-19T04:49:04.761Z,102052.34
2023-05-19T04:51:33.947Z,102056.31
2023-05-19T04:54:01.732Z,102050.28
2023-05-19T04:56:30.166Z,102059.00
2023-05-19T04:58:58.011Z,102056.91
2023-05-19T05:01:26.161Z,102064.06
2023-05-19T05:03:55.242Z,102051.91
2023-05-19T05:06:23.073Z,102063.31
2023-05-19T05:08:52.707Z,102057.78
2023-05-19T05:11:20.932Z,102061.97
2023-05-19T05:13:49.396Z,102071.13
2023-05-19T05:16:17.834Z,102048.47
2023-05-19T05:18:46.872Z,102070.03
2023-05-19T05:21:15.122Z,102044.88
2023-05-19T05:23:43.363Z,102063.50
2023-05-19T05:26:18.696Z,102046.91
2023-05-19T05:28:46.445Z,102033.13
2023-05-19T05:31:14.204Z,102036.78
2023-05-19T05:33:42.373Z,102045.34
2023-05-19T05:36:10.373Z,102057.16
2023-05-19T05:38:38.050Z,102062.16
2023-05-19T05:41:05.914Z,102061.13
2023-05-19T05:43:34.971Z,102049.38
2023-05-19T05:46:02.737Z,102069.97
2023-05-19T05:48:31.022Z,102028.78
2023-05-19T05:50:59.071Z,102057.69
2023-05-19T05:53:27.850Z,102049.81
2023-05-19T05:55:56.199Z,102061.97
2023-05-19T05:58:24.348Z,102062.44
2023-05-19T06:00:57.130Z,102036.56
2023-05-19T06:03:25.245Z,102057.72
2023-05-19T06:05:53.106Z,102048.00
2023-05-19T06:08:20.899Z,102052.50
2023-05-19T06:10:48.616Z,102045.91
2023-05-19T06:13:22.207Z,102042.78
2023-05-19T06:15:50.022Z,102053.91
2023-05-19T06:18:19.138Z,102058.47
2023-05-19T06:20:46.880Z,102064.78
2023-05-19T06:23:14.589Z,102070.09
2023-05-19T06:25:42.327Z,102060.59
2023-05-19T06:28:10.172Z,102058.72
2023-05-19T06:30:37.833Z,102057.09
2023-05-19T06:33:05.715Z,102061.06
2023-05-19T06:35:34.924Z,102052.63
2023-05-19T06:38:02.696Z,102063.97
2023-05-19T06:40:30.652Z,102062.94
2023-05-19T06:42:58.569Z,102065.97
2023-05-19T06:45:26.503Z,102080.13
2023-05-19T06:47:54.770Z,102067.38
2023-05-19T06:50:22.572Z,102072.38
2023-05-19T06:52:51.686Z,102058.41
2023-05-19T06:55:19.426Z,102076.53
2023-05-19T06:57:47.147Z,102089.47
2023-05-19T07:00:18.715Z,102081.28
2023-05-19T07:02:47.714Z,102080.03
2023-05-19T07:05:15.774Z,102065.31
2023-05-19T07:07:44.047Z,102071.75
2023-05-19T07:10:13.303Z,102061.25
2023-05-19T07:12:41.073Z,102054.09
2023-05-19T07:15:09.263Z,102067.09
2023-05-19T07:17:37.028Z,102069.03
2023-05-19T07:20:06.744Z,102067.31
2023-05-19T07:22:35.103Z,102066.34
2023-05-19T07:25:02.854Z,102057.53
2023-05-19T07:27:31.996Z,102059.50
2023-05-19T07:29:59.954Z,102070.56
2023-05-19T07:32:27.696Z,102058.31
2023-05-19T07:34:55.813Z,102048.63
2023-05-19T07:37:23.587Z,102072.75
2023-05-19T07:39:51.277Z,102061.56
2023-05-19T07:42:19.036Z,102065.72
2023-05-19T07:44:48.113Z,102070.53
2023-05-19T07:47:15.856Z,102057.91
2023-05-19T07:49:43.599Z,102064.38
2023-05-19T07:52:11.287Z,102074.88
2023-05-19T07:54:39.006Z,102055.50
2023-05-19T07:57:07.306Z,102059.78
2023-05-19T07:59:35.053Z,102060.22
2023-05-19T08:02:04.242Z,102066.81
2023-05-19T08:04:32.114Z,102044.63
2023-05-19T08:06:59.889Z,102050.19
2023-05-19T08:09:27.606Z,102063.47
2023-05-19T08:11:55.931Z,102060.28
2023-05-19T08:14:23.671Z,102043.81
2023-05-19T08:16:51.755Z,102062.56
2023-05-19T08:19:21.084Z,102063.69
2023-05-19T08:21:49.701Z,102055.72
2023-05-19T08:24:17.432Z,102049.47
2023-05-19T08:26:45.540Z,102059.63
2023-05-19T08:29:13.263Z,102056.31
2023-05-19T08:31:41.124Z,102038.84
2023-05-19T08:34:09.363Z,102049.81
2023-05-19T08:36:39.025Z,102028.91
2023-05-19T08:39:06.938Z,102044.28
2023-05-19T08:41:34.696Z,102025.78
2023-05-19T08:44:02.415Z,102016.31
2023-05-19T08:46:30.797Z,102022.16
2023-05-19T08:49:00.835Z,102026.13
2023-05-19T08:51:33.707Z,102016.69
2023-05-19T08:54:09.128Z,102020.13
2023-05-19T08:56:37.220Z,102018.69
2023-05-19T08:59:05.263Z,102006.13
2023-05-19T09:01:33.394Z,102010.53
2023-05-19T09:04:01.271Z,102011.81
2023-05-19T09:06:32.362Z,102008.94
2023-05-19T09:09:00.123Z,101988.44
2023-05-19T09:11:29.348Z,102001.94
2023-05-19T09:13:57.038Z,101994.81
2023-05-19T09:16:25.961Z,101991.16
2023-05-19T09:18:57.005Z,101978.25
2023-05-19T09:21:33.978Z,101981.38
2023-05-19T09:24:06.057Z,101989.19
2023-05-19T09:26:39.954Z,101980.47
2023-05-19T09:29:18.208Z,101983.47
2023-05-19T09:31:50.615Z,101977.53
2023-05-19T09:34:18.554Z,101967.84
2023-05-19T09:36:49.386Z,101982.94
2023-05-19T09:39:17.863Z,101982.97
2023-05-19T09:41:47.553Z,101984.13
2023-05-19T09:44:15.596Z,101990.56
2023-05-19T09:46:50.415Z,101983.34
2023-05-19T09:49:22.709Z,101975.50
2023-05-19T09:51:52.129Z,101971.81
2023-05-19T09:54:21.480Z,101968.41
2023-05-19T09:56:58.602Z,101963.63
2023-05-19T09:59:29.769Z,101969.34
2023-05-19T10:01:59.981Z,101969.25
2023-05-19T10:04:29.464Z,101952.00
2023-05-19T10:06:59.438Z,101947.81
2023-05-19T10:09:28.224Z,101943.88
2023-05-19T10:11:58.488Z,101948.47
2023-05-19T10:14:27.674Z,101945.81
2023-05-19T10:16:56.633Z,101965.78
2023-05-19T10:19:26.171Z,101969.53
2023-05-19T10:21:54.403Z,101936.53
2023-05-19T10:24:22.358Z,101965.59
2023-05-19T10:26:53.018Z,101952.63
2023-05-19T10:29:24.303Z,101944.59
2023-05-19T10:31:53.334Z,101943.59
2023-05-19T10:34:51.411Z,101925.06
2023-05-19T10:37:28.877Z,101924.72
2023-05-19T10:39:56.707Z,101921.31
2023-05-19T10:42:32.649Z,101906.81
2023-05-19T10:45:06.889Z,101923.97
2023-05-19T10:47:35.075Z,101906.47
2023-05-19T10:50:02.825Z,101913.59
2023-05-19T10:52:32.864Z,101894.38
2023-05-19T10:55:02.201Z,101886.00
2023-05-19T10:57:32.058Z,101905.28
2023-05-19T11:00:00.754Z,101921.75
2023-05-19T11:02:41.144Z,101917.09
2023-05-19T11:05:10.698Z,101917.00
2023-05-19T11:07:38.664Z,101933.41
2023-05-19T11:10:10.057Z,101912.03
2023-05-19T11:12:43.409Z,101908.09
2023-05-19T11:15:15.562Z,101922.69
2023-05-19T11:17:49.672Z,101894.41
2023-05-19T11:20:24.601Z,101895.59
2023-05-19T11:23:08.515Z,101886.72
2023-05-19T11:25:43.914Z,101888.25
2023-05-19T11:28:13.142Z,101881.06
2023-05-19T11:30:43.359Z,101891.88
2023-05-19T11:33:13.415Z,101895.91
2023-05-19T11:35:41.333Z,101887.78
2023-05-19T11:38:09.095Z,101882.53
2023-05-19T11:40:37.681Z,101872.09
2023-05-19T11:43:05.399Z,101857.75
2023-05-19T11:45:34.230Z,101870.72
2023-05-19T11:48:03.569Z,101879.84
2023-05-19T11:50:33.618Z,101881.59
2023-05-19T11:53:02.113Z,101876.63
2023-05-19T11:55:30.980Z,101858.00
2023-05-19T12:00:31.141Z,101866.13
2023-05-19T12:02:59.234Z,101875.72
2023-05-19T12:05:28.226Z,101868.56
2023-05-19T12:07:57.400Z,101871.06
2023-05-19T12:10:25.625Z,101867.81
2023-05-19T12:12:54.226Z,101846.53
2023-05-19T12:15:22.735Z,101852.75
2023-05-19T12:17:51.287Z,101856.94
2023-05-19T12:20:19.422Z,101858.81
2023-05-19T12:22:47.475Z,101856.03
2023-05-19T12:25:17.020Z,101842.75
2023-05-19T12:27:45.503Z,101847.63
2023-05-19T12:30:13.829Z,101869.59
2023-05-19T12:32:41.641Z,101863.00
2023-05-19T12:35:10.535Z,101856.50
2023-05-19T12:37:41.728Z,101847.63
2023-05-19T12:40:10.934Z,101858.69
2023-05-19T12:42:45.939Z,101851.03
2023-05-19T12:45:13.969Z,101844.81
2023-05-19T12:47:41.716Z,101858.25
2023-05-19T12:50:10.885Z,101847.13
2023-05-19T12:52:43.175Z,101860.94
2023-05-19T12:55:12.204Z,101827.28
2023-05-19T12:57:43.023Z,101831.66
2023-05-19T13:00:17.526Z,101825.94
2023-05-19T13:02:59.332Z,101827.28
2023-05-19T13:05:28.244Z,101834.81
2023-05-19T13:07:59.976Z,101816.63
2023-05-19T13:10:29.580Z,101832.41
2023-05-19T13:13:00.195Z,101829.75
2023-05-19T13:15:29.556Z,101830.41
2023-05-19T13:17:57.262Z,101841.88
2023-05-19T13:20:27.617Z,101840.41
2023-05-19T13:22:56.961Z,101808.97
2023-05-19T13:25:24.680Z,101810.56
2023-05-19T13:27:52.395Z,101798.28
2023-05-19T13:30:22.734Z,101792.84
2023-05-19T13:32:52.471Z,101801.56
2023-05-19T13:35:20.943Z,101807.47
2023-05-19T13:37:48.959Z,101797.38
2023-05-19T13:40:17.576Z,101798.78
2023-05-19T13:42:45.349Z,101814.50
2023-05-19T13:45:13.229Z,101816.53
2023-05-19T13:47:42.379Z,101818.16
2023-05-19T13:50:10.571Z,101798.13
2023-05-19T13:52:38.319Z,101805.97
2023-05-19T13:55:08.113Z,101801.72
2023-05-19T13:57:36.952Z,101803.88
2023-05-19T14:00:05.944Z,101786.53
2023-05-19T14:02:34.409Z,101786.44
2023-05-19T14:05:03.580Z,101795.88
2023-05-19T14:07:31.732Z,101785.78
2023-05-19T14:09:59.463Z,101791.97
2023-05-19T14:12:36.386Z,101793.66
2023-05-19T14:15:11.921Z,101806.25
2023-05-19T14:17:39.661Z,101811.28
2023-05-19T14:20:09.975Z,101813.16
2023-05-19T14:22:37.669Z,101804.44
2023-05-19T14:25:05.874Z,101802.63
2023-05-19T14:27:33.679Z,101808.09
2023-05-19T14:30:01.455Z,101800.41
2023-05-19T14:32:30.401Z,101795.88
2023-05-19T14:34:58.465Z,101796.63
2023-05-19T14:37:28.968Z,101784.69
2023-05-19T14:39:57.972Z,101783.50
2023-05-19T14:42:25.913Z,101765.13
2023-05-19T14:44:53.700Z,101765.28
2023-05-19T14:47:21.475Z,101779.50
2023-05-19T14:49:49.475Z,101774.75
2023-05-19T14:52:17.889Z,101778.81
2023-05-19T14:54:46.994Z,101763.00
2023-05-19T14:57:14.754Z,101771.78
2023-05-19T14:59:42.553Z,101778.78
2023-05-19T15:02:11.901Z,101760.31
2023-05-19T15:04:39.628Z,101771.38
2023-05-19T15:07:10.106Z,101763.94
2023-05-19T15:09:38.293Z,101753.78
2023-05-19T15:12:07.491Z,101743.22
2023-05-19T15:14:35.256Z,101752.00
2023-05-19T15:17:03.036Z,101756.69
2023-05-19T15:19:30.870Z,101766.28
2023-05-19T15:21:58.605Z,101751.69
2023-05-19T15:24:26.574Z,101760.63
2023-05-19T15:26:55.415Z,101752.53
2023-05-19T15:29:24.637Z,101756.59
2023-05-19T15:31:52.599Z,101758.13
2023-05-19T15:34:20.545Z,101759.22
2023-05-19T15:36:48.612Z,101754.41
2023-05-19T15:39:16.410Z,101760.00
2023-05-19T15:41:44.108Z,101769.53
2023-05-19T15:44:11.868Z,101741.44
2023-05-19T15:46:41.143Z,101752.69
2023-05-19T15:49:09.150Z,101749.03
2023-05-19T15:51:40.887Z,101754.44
2023-05-19T15:54:08.597Z,101755.44
2023-05-19T15:56:36.384Z,101742.09
2023-05-19T15:59:04.169Z,101745.94
2023-05-19T16:01:31.899Z,101744.81
2023-05-19T16:04:03.653Z,101757.38
2023-05-19T16:06:31.697Z,101727.88
2023-05-19T16:08:59.440Z,101721.63
2023-05-19T16:11:27.312Z,101740.97
2023-05-19T16:13:55.049Z,101740.25
2023-05-19T16:16:22.806Z,101730.09
2023-05-19T16:18:50.603Z,101734.03
2023-05-19T16:21:19.771Z,101729.63
2023-05-19T16:23:47.616Z,101714.19
2023-05-19T16:26:15.371Z,101730.41
2023-05-19T16:28:43.058Z,101746.75
2023-05-19T16:31:10.858Z,101723.78
2023-05-19T16:33:38.628Z,101720.03
2023-05-19T16:36:06.810Z,101710.50
2023-05-19T16:38:35.972Z,101726.44
2023-05-19T16:41:05.267Z,101730.25
2023-05-19T16:43:34.350Z,101725.22
2023-05-19T16:46:03.528Z,101731.66
2023-05-19T16:48:31.422Z,101736.72
2023-05-19T16:50:59.494Z,101725.09
2023-05-19T16:53:27.308Z,101723.69
2023-05-19T16:55:56.498Z,101718.16
2023-05-19T16:58:24.283Z,101717.69
2023-05-19T17:00:52.764Z,101719.44
2023-05-19T17:03:21.057Z,101725.31
2023-05-19T17:05:49.410Z,101731.91
2023-05-19T17:08:17.178Z,101730.66
2023-05-19T17:10:45.377Z,101737.53
2023-05-19T17:13:14.510Z,101726.53
2023-05-19T17:15:43.483Z,101728.44
2023-05-19T17:18:12.607Z,101713.59
2023-05-19T17:20:41.595Z,101732.25
2023-05-19T17:23:09.358Z,101724.97
2023-05-19T17:25:37.240Z,101714.16
2023-05-19T17:28:05.187Z,101717.34
2023-05-19T17:30:34.637Z,101726.66
2023-05-19T17:33:02.632Z,101730.25
2023-05-19T17:35:30.348Z,101733.38
2023-05-19T17:37:58.572Z,101729.53
2023-05-19T17:40:26.808Z,101731.66
2023-05-19T17:42:54.958Z,101729.97
2023-05-19T17:45:22.724Z,101737.66
2023-05-19T17:47:51.830Z,101742.78
2023-05-19T17:50:19.581Z,101737.44
2023-05-19T17:52:47.861Z,101733.81
2023-05-19T17:55:16.155Z,101728.28
2023-05-19T17:57:44.956Z,101732.84
2023-05-19T18:00:13.750Z,101733.78
2023-05-19T18:02:42.006Z,101748.53
2023-05-19T18:05:12.968Z,101746.28
2023-05-19T18:07:41.232Z,101747.59
2023-05-19T18:10:11.065Z,101752.38
2023-05-19T18:12:38.826Z,101750.66
2023-05-19T18:15:07.564Z,101739.91
2023-05-19T18:17:35.517Z,101738.50
2023-05-19T18:20:03.449Z,101732.50
2023-05-19T18:22:32.625Z,101737.97
2023-05-19T18:25:00.301Z,101744.03
2023-05-19T18:27:28.517Z,101736.72
2023-05-19T18:29:56.210Z,101741.88
2023-05-19T18:32:23.951Z,101741.94
2023-05-19T18:34:52.062Z,101739.44
2023-05-19T18:37:19.808Z,101747.13
2023-05-19T18:39:49.004Z,101745.94
2023-05-19T18:42:16.741Z,101750.31
2023-05-19T18:44:46.751Z,101761.41
2023-05-19T18:47:14.906Z,101744.31
2023-05-19T18:49:43.151Z,101734.13
2023-05-19T18:52:11.093Z,101750.59
2023-05-19T18:54:40.557Z,101744.81
2023-05-19T18:57:09.883Z,101752.16
2023-05-19T18:59:37.661Z,101764.88
2023-05-19T19:02:05.736Z,101766.69
2023-05-19T19:04:34.463Z,101755.03
2023-05-19T19:07:02.273Z,101769.25
2023-05-19T19:09:30.027Z,101762.66
2023-05-19T19:11:57.739Z,101772.66
2023-05-19T19:14:26.914Z,101772.97
2023-05-19T19:16:54.713Z,101779.56
2023-05-19T19:19:23.724Z,101776.34
2023-05-19T19:21:51.646Z,101776.81
2023-05-19T19:24:19.402Z,101784.22
2023-05-19T19:26:47.063Z,101783.34
2023-05-19T19:29:16.695Z,101796.19
2023-05-19T19:31:45.961Z,101791.81
2023-05-19T19:34:13.768Z,101787.09
2023-05-19T19:36:41.447Z,101792.75
2023-05-19T19:39:09.473Z,101794.06
2023-05-19T19:41:37.580Z,101794.03
2023-05-19T19:44:05.770Z,101805.16
2023-05-19T19:46:33.538Z,101809.44
2023-05-19T19:49:02.621Z,101816.63
2023-05-19T19:51:31.442Z,101812.38
2023-05-19T19:53:59.471Z,101813.91
2023-05-19T19:56:27.658Z,101817.88
2023-05-19T19:58:56.822Z,101818.81
2023-05-19T20:01:27.595Z,101827.97
2023-05-19T20:03:55.890Z,101828.13
2023-05-19T20:06:25.176Z,101834.16
2023-05-19T20:08:52.928Z,101830.91
2023-05-19T20:11:22.803Z,101836.97
2023-05-19T20:13:50.577Z,101827.34
2023-05-19T20:16:18.325Z,101825.63
2023-05-19T20:18:46.223Z,101825.53
2023-05-19T20:21:14.015Z,101837.00
2023-05-19T20:23:43.102Z,101847.31
2023-05-19T20:26:13.068Z,101837.22
2023-05-19T20:28:41.545Z,101846.75
2023-05-19T20:31:09.554Z,101842.22
2023-05-19T20:33:37.290Z,101840.81
2023-05-19T20:36:06.352Z,101853.19
2023-05-19T20:38:34.063Z,101850.56
2023-05-19T20:41:03.917Z,101840.50
2023-05-19T20:43:32.997Z,101844.09
2023-05-19T20:46:01.383Z,101849.72
2023-05-19T20:48:29.262Z,101845.22
2023-05-19T20:50:57.096Z,101849.13
2023-05-19T20:53:24.925Z,101840.03
2023-05-19T20:55:53.401Z,101836.31
2023-05-19T20:58:22.492Z,101842.03
2023-05-19T21:00:57.588Z,101833.09
2023-05-19T21:03:26.756Z,101844.03
2023-05-19T21:05:54.716Z,101844.34
2023-05-19T21:08:22.416Z,101837.22
2023-05-19T21:10:50.127Z,101847.03
2023-05-19T21:13:18.659Z,101843.94
2023-05-19T21:15:47.770Z,101839.31
2023-05-19T21:18:15.592Z,101855.47
2023-05-19T21:20:43.371Z,101851.25
2023-05-19T21:23:11.159Z,101851.09
2023-05-19T21:25:40.892Z,101861.28
2023-05-19T21:28:08.605Z,101847.16
2023-05-19T21:30:36.446Z,101858.47
2023-05-19T21:33:05.691Z,101861.41
2023-05-19T21:35:33.432Z,101860.50
2023-05-19T21:38:12.007Z,101862.19
2023-05-19T21:40:43.629Z,101862.34
2023-05-19T21:43:12.641Z,101866.94
2023-05-19T21:45:40.792Z,101854.22
2023-05-19T21:48:09.909Z,101872.94
2023-05-19T21:50:38.297Z,101866.09
2023-05-19T21:53:06.215Z,101865.97
2023-05-19T21:55:34.034Z,101861.22
2023-05-19T21:58:02.758Z,101861.94
2023-05-19T22:00:30.663Z,101856.63
2023-05-19T22:02:58.934Z,101873.91
2023-05-19T22:05:30.186Z,101865.16
2023-05-19T22:07:58.063Z,101870.59
2023-05-19T22:10:25.829Z,101861.06
2023-05-19T22:12:53.571Z,101866.56
2023-05-19T22:15:21.520Z,101856.13
2023-05-19T22:17:49.210Z,101862.72
2023-05-19T22:20:17.309Z,101861.81
2023-05-19T22:22:46.384Z,101863.06
2023-05-19T22:25:14.075Z,101857.25
2023-05-19T22:27:41.776Z,101857.00
2023-05-19T22:30:09.853Z,101857.91
2023-05-19T22:32:37.629Z,101859.69
2023-05-19T22:35:06.560Z,101858.78
2023-05-19T22:37:34.480Z,101868.22
2023-05-19T22:40:03.584Z,101858.03
2023-05-19T22:42:31.434Z,101856.47
2023-05-19T22:44:59.164Z,101854.69
2023-05-19T22:47:26.985Z,101854.63
2023-05-19T22:49:55.657Z,101853.44
2023-05-19T22:52:24.863Z,101849.53
2023-05-19T22:54:52.557Z,101852.38
2023-05-19T22:57:21.700Z,101855.00
2023-05-19T22:59:49.482Z,101841.72
2023-05-19T23:02:17.168Z,101856.34
2023-05-19T23:04:44.940Z,101852.38
2023-05-19T23:07:12.655Z,101853.28
2023-05-19T23:09:40.372Z,101855.81
2023-05-19T23:12:08.090Z,101859.03
2023-05-19T23:14:37.180Z,101852.63
2023-05-19T23:17:05.181Z,101856.88
2023-05-19T23:19:34.806Z,101865.97
2023-05-19T23:22:02.526Z,101855.47
2023-05-19T23:24:30.225Z,101856.13
2023-05-19T23:26:57.989Z,101851.25
2023-05-19T23:29:25.698Z,101859.97
2023-05-19T23:31:54.860Z,101859.50
2023-05-19T23:34:22.641Z,101859.25
2023-05-19T23:36:50.371Z,101859.31
2023-05-19T23:39:18.106Z,101860.69
2023-05-19T23:41:46.109Z,101852.50
2023-05-19T23:44:13.789Z,101844.84
2023-05-19T23:46:41.955Z,101847.22
2023-05-19T23:49:11.093Z,101854.75
2023-05-19T23:51:38.830Z,101850.97
2023-05-19T23:54:06.590Z,101843.97
2023-05-19T23:56:34.338Z,101847.03
2023-05-19T23:59:02.024Z,101850.13
